createdAt,value
2019-03-29T00:16:38.345Z,49.45
2019-03-29T00:17:38.284Z,49.98
2019-03-29T00:18:38.276Z,49.47
2019-03-29T00:19:38.262Z,50.59
2019-03-29T00:20:38.253Z,50.79
2019-03-29T00:21:39.117Z,50.79
2019-03-29T00:22:38.282Z,50.18
2019-03-29T00:23:38.223Z,50.48
2019-03-29T00:24:38.212Z,50.18
2019-03-29T00:25:38.198Z,51.22
2019-03-29T00:26:38.192Z,50.51
2019-03-29T00:27:38.177Z,50.51
2019-03-29T00:28:38.269Z,50.31
2019-03-29T00:29:38.169Z,51.32
2019-03-29T00:30:38.148Z,51.62
2019-03-29T00:31:38.139Z,51.64
2019-03-29T00:32:38.125Z,50.53
2019-03-29T00:33:38.113Z,50.93
2019-03-29T00:34:38.152Z,50.93
2019-03-29T00:35:38.097Z,50.33
2019-03-29T00:36:38.084Z,50.93
2019-03-29T00:37:38.077Z,50.63
2019-03-29T00:39:38.047Z,51.55
2019-03-29T00:40:38.138Z,51.01
2019-03-29T00:41:38.029Z,51.52
2019-03-29T00:42:38.028Z,51.42
2019-03-29T00:43:38.019Z,51.80
2019-03-29T00:44:38.010Z,51.27
2019-03-29T00:45:37.983Z,50.18
2019-03-29T00:46:38.109Z,51.39
2019-03-29T00:47:37.962Z,51.39
2019-03-29T00:48:37.951Z,51.57
2019-03-29T00:49:37.945Z,51.27
2019-03-29T00:50:37.940Z,51.87
2019-03-29T00:51:37.922Z,51.47
2019-03-29T00:52:38.010Z,51.27
2019-03-29T00:53:37.897Z,51.27
2019-03-29T00:54:37.887Z,51.07
2019-03-29T00:55:37.877Z,51.27
2019-03-29T00:56:38.968Z,51.17
2019-03-29T00:57:37.854Z,51.57
2019-03-29T00:58:37.896Z,51.78
2019-03-29T00:59:37.831Z,51.59
2019-03-29T01:00:37.824Z,51.90
2019-03-29T01:01:37.815Z,52.30
2019-03-29T01:02:37.803Z,52.33
2019-03-29T01:06:39.125Z,53.07
2019-03-29T01:07:37.746Z,52.96
2019-03-29T01:08:38.121Z,52.96
2019-03-29T01:09:37.730Z,52.74
2019-03-29T01:10:37.763Z,53.44
2019-03-29T01:11:37.709Z,53.34
2019-03-29T01:12:37.699Z,54.28
2019-03-29T01:13:37.681Z,54.88
2019-03-29T01:14:37.672Z,55.32
2019-03-29T01:15:37.663Z,55.52
2019-03-29T01:16:37.699Z,56.53
2019-03-29T01:17:37.641Z,55.82
2019-03-29T01:18:38.085Z,55.85
2019-03-29T01:19:37.622Z,55.95
2019-03-29T01:20:37.614Z,56.97
2019-03-29T01:21:37.752Z,56.35
2019-03-29T01:22:37.589Z,55.88
2019-03-29T01:23:37.584Z,55.34
2019-03-29T01:24:37.572Z,55.45
2019-03-29T01:25:37.558Z,55.04
2019-03-29T01:26:37.542Z,55.21
2019-03-29T01:27:37.588Z,53.36
2019-03-29T01:28:38.557Z,52.63
2019-03-29T01:29:37.513Z,51.57
2019-03-29T01:30:37.509Z,51.14
2019-03-29T01:31:37.496Z,50.31
2019-03-29T01:32:37.488Z,50.29
2019-03-29T01:33:37.525Z,49.50
2019-03-29T01:34:37.464Z,50.74
2019-03-29T01:35:37.454Z,51.78
2019-03-29T01:36:37.440Z,52.18
2019-03-29T01:37:37.428Z,51.62
2019-03-29T01:38:37.448Z,51.72
2019-03-29T01:39:37.562Z,51.11
2019-03-29T01:40:37.399Z,50.40
2019-03-29T01:41:37.384Z,51.72
2019-03-29T01:42:37.378Z,52.23
2019-03-29T01:43:37.369Z,51.47
2019-03-29T01:44:37.357Z,49.91
2019-03-29T01:45:37.453Z,49.68
2019-03-29T01:46:38.085Z,47.66
2019-03-29T01:47:37.324Z,48.09
2019-03-29T01:48:37.315Z,48.01
2019-03-29T01:49:37.305Z,49.43
2019-03-29T01:50:37.294Z,48.09
2019-03-29T01:51:37.328Z,48.69
2019-03-29T01:52:37.270Z,49.60
2019-03-29T01:53:37.983Z,49.68
2019-03-29T01:54:37.247Z,49.35
2019-03-29T01:55:37.253Z,48.44
2019-03-29T01:56:37.232Z,48.40
2019-03-29T01:57:37.364Z,46.73
2019-03-29T01:58:37.206Z,48.22
2019-03-29T01:59:37.191Z,48.44
2019-03-29T02:00:37.187Z,46.83
2019-03-29T02:01:37.180Z,48.16
2019-03-29T02:02:37.162Z,49.89
2019-03-29T02:03:37.203Z,48.57
2019-03-29T02:04:37.143Z,48.49
2019-03-29T02:05:37.131Z,49.00
2019-03-29T02:06:37.122Z,48.74
2019-03-29T02:07:38.083Z,49.98
2019-03-29T02:08:37.883Z,50.18
2019-03-29T02:09:37.189Z,49.85
2019-03-29T02:10:37.084Z,49.78
2019-03-29T02:11:37.065Z,50.00
2019-03-29T02:12:37.063Z,51.42
2019-03-29T02:13:37.059Z,51.85
2019-03-29T02:14:37.036Z,51.64
2019-03-29T02:15:37.920Z,52.15
2019-03-29T02:16:37.013Z,51.70
2019-03-29T02:17:37.005Z,50.43
2019-03-29T02:18:36.991Z,49.00
2019-03-29T02:19:36.981Z,49.70
2019-03-29T02:20:36.974Z,48.65
2019-03-29T02:21:37.015Z,47.64
2019-03-29T02:22:37.102Z,46.75
2019-03-29T02:23:36.939Z,49.10
2019-03-29T02:24:36.928Z,48.35
2019-03-29T02:25:36.916Z,47.82
2019-03-29T02:26:36.906Z,46.50
2019-03-29T02:27:36.952Z,47.60
2019-03-29T02:28:36.883Z,47.67
2019-03-29T02:29:37.187Z,46.38
2019-03-29T02:30:36.866Z,45.88
2019-03-29T02:31:36.862Z,46.89
2019-03-29T02:32:36.850Z,45.92
2019-03-29T02:33:36.983Z,44.56
2019-03-29T02:34:36.823Z,44.48
2019-03-29T02:35:38.438Z,42.49
2019-03-29T02:36:36.799Z,43.30
2019-03-29T02:37:36.792Z,43.82
2019-03-29T02:38:54.231Z,43.72
2019-03-29T02:40:01.639Z,44.26
2019-03-29T02:41:01.622Z,46.20
2019-03-29T02:42:01.607Z,47.01
2019-03-29T02:43:01.600Z,44.25
2019-03-29T02:44:01.593Z,43.92
2019-03-29T02:45:03.400Z,44.83
2019-03-29T02:46:01.573Z,43.64
2019-03-29T02:47:01.563Z,44.45
2019-03-29T02:48:01.547Z,44.97
2019-03-29T02:49:01.537Z,45.96
2019-03-29T02:50:01.525Z,44.89
2019-03-29T02:51:01.963Z,44.68
2019-03-29T02:52:01.506Z,44.89
2019-03-29T02:53:01.500Z,43.76
2019-03-29T02:54:01.478Z,43.62
2019-03-29T02:55:01.481Z,42.67
2019-03-29T02:56:01.460Z,42.15
2019-03-29T02:57:01.502Z,42.13
2019-03-29T02:58:01.438Z,41.69
2019-03-29T02:59:01.427Z,40.95
2019-03-29T03:00:01.419Z,39.33
2019-03-29T03:01:01.403Z,39.23
2019-03-29T03:02:01.398Z,38.69
2019-03-29T03:03:01.490Z,38.07
2019-03-29T03:04:01.379Z,37.84
2019-03-29T03:05:01.372Z,37.02
2019-03-29T03:06:01.356Z,36.80
2019-03-29T03:07:01.339Z,35.90
2019-03-29T03:08:01.329Z,35.30
2019-03-29T03:09:13.358Z,35.42
2019-03-29T03:10:02.403Z,35.76
2019-03-29T03:11:01.296Z,35.74
2019-03-29T03:12:01.286Z,34.91
2019-03-29T03:13:01.275Z,34.17
2019-03-29T03:14:01.260Z,34.57
2019-03-29T03:15:01.305Z,33.06
2019-03-29T03:16:01.244Z,33.36
2019-03-29T03:17:01.240Z,33.15
2019-03-29T03:18:01.221Z,33.99
2019-03-29T03:19:01.230Z,34.59
2019-03-29T03:20:01.201Z,33.88
2019-03-29T03:21:01.248Z,32.26
2019-03-29T03:22:01.181Z,32.97
2019-03-29T03:23:01.175Z,34.08
2019-03-29T03:24:01.164Z,32.76
2019-03-29T03:25:01.164Z,32.47
2019-03-29T03:26:01.135Z,32.44
2019-03-29T03:27:01.284Z,32.32
2019-03-29T03:28:01.147Z,32.01
2019-03-29T03:29:01.104Z,31.90
2019-03-29T03:30:01.137Z,31.20
2019-03-29T03:31:01.104Z,31.89
2019-03-29T03:32:01.079Z,31.87
2019-03-29T03:33:01.113Z,31.07
2019-03-29T03:34:01.069Z,31.25
2019-03-29T03:35:01.100Z,31.18
2019-03-29T03:36:01.040Z,32.11
2019-03-29T03:37:01.017Z,32.53
2019-03-29T03:38:01.027Z,32.25
2019-03-29T03:39:01.105Z,33.16
2019-03-29T03:40:00.991Z,32.56
2019-03-29T03:41:00.976Z,32.98
2019-03-29T03:42:00.965Z,33.08
2019-03-29T03:43:00.953Z,32.91
2019-03-29T03:44:00.950Z,33.81
2019-03-29T03:45:01.086Z,34.32
2019-03-29T03:46:00.928Z,34.34
2019-03-29T03:47:00.915Z,34.34
2019-03-29T03:48:00.904Z,34.56
2019-03-29T03:49:00.991Z,35.77
2019-03-29T03:50:01.657Z,35.96
2019-03-29T03:51:00.927Z,35.57
2019-03-29T03:52:00.861Z,35.37
2019-03-29T03:53:00.851Z,36.79
2019-03-29T03:54:00.842Z,37.19
2019-03-29T03:55:00.835Z,37.09
2019-03-29T03:56:00.820Z,38.07
2019-03-29T03:57:00.861Z,38.19
2019-03-29T03:58:00.801Z,37.99
2019-03-29T03:59:00.790Z,38.59
2019-03-29T04:00:00.785Z,37.89
2019-03-29T04:01:00.776Z,38.59
2019-03-29T04:02:00.759Z,39.41
2019-03-29T04:03:00.901Z,39.51
2019-03-29T04:04:00.744Z,39.81
2019-03-29T04:05:00.784Z,41.01
2019-03-29T04:06:00.716Z,40.73
2019-03-29T04:07:00.704Z,40.42
2019-03-29T04:08:00.696Z,40.55
2019-03-29T04:09:00.734Z,41.85
2019-03-29T04:10:00.680Z,40.45
2019-03-29T04:11:00.661Z,41.85
2019-03-29T04:12:00.655Z,42.45
2019-03-29T04:13:00.640Z,42.77
2019-03-29T04:14:00.632Z,42.17
2019-03-29T04:15:00.722Z,43.17
2019-03-29T04:16:00.610Z,43.19
2019-03-29T04:17:00.600Z,43.79
2019-03-29T04:18:00.593Z,43.71
2019-03-29T04:19:00.580Z,44.14
2019-03-29T04:20:00.715Z,43.23
2019-03-29T04:21:01.761Z,43.64
2019-03-29T04:22:00.624Z,42.63
2019-03-29T04:23:00.541Z,44.66
2019-03-29T04:24:00.527Z,44.66
2019-03-29T04:25:00.528Z,44.76
2019-03-29T04:26:00.507Z,43.45
2019-03-29T04:27:00.548Z,44.26
2019-03-29T04:28:00.480Z,44.74
2019-03-29T04:29:04.536Z,44.34
2019-03-29T04:30:00.854Z,44.64
2019-03-29T04:31:00.462Z,44.23
2019-03-29T04:32:00.437Z,43.84
2019-03-29T04:33:00.477Z,43.73
2019-03-29T04:34:00.418Z,42.81
2019-03-29T04:35:00.493Z,44.12
2019-03-29T04:36:00.403Z,44.31
2019-03-29T04:37:00.388Z,43.51
2019-03-29T04:38:00.378Z,44.23
2019-03-29T04:39:00.520Z,43.64
2019-03-29T04:40:07.547Z,44.23
2019-03-29T04:41:25.215Z,44.76
2019-03-29T04:42:25.151Z,44.76
2019-03-29T04:43:25.136Z,44.98
2019-03-29T04:44:25.179Z,43.65
2019-03-29T04:45:25.114Z,42.93
2019-03-29T04:46:25.117Z,44.14
2019-03-29T04:47:25.093Z,43.31
2019-03-29T04:48:25.085Z,42.81
2019-03-29T04:49:25.081Z,43.92
2019-03-29T04:50:25.109Z,43.61
2019-03-29T04:51:25.048Z,43.42
2019-03-29T04:52:25.037Z,43.09
2019-03-29T04:53:25.031Z,43.19
2019-03-29T04:54:25.026Z,41.67
2019-03-29T04:55:25.012Z,40.86
2019-03-29T04:56:25.150Z,41.53
2019-03-29T04:57:25.031Z,40.73
2019-03-29T04:58:24.977Z,39.51
2019-03-29T04:59:24.964Z,38.23
2019-03-29T05:00:24.959Z,37.93
2019-03-29T05:01:24.947Z,38.73
2019-03-29T05:02:24.982Z,37.43
2019-03-29T05:03:24.921Z,38.01
2019-03-29T05:04:24.919Z,36.81
2019-03-29T05:05:24.905Z,36.47
2019-03-29T05:06:24.885Z,36.65
2019-03-29T05:07:24.883Z,36.57
2019-03-29T05:08:24.920Z,35.98
2019-03-29T05:09:24.856Z,36.15
2019-03-29T05:10:24.844Z,35.96
2019-03-29T05:11:24.831Z,35.74
2019-03-29T05:12:24.824Z,36.26
2019-03-29T05:13:24.817Z,36.54
2019-03-29T05:14:24.952Z,36.22
2019-03-29T05:15:24.792Z,35.62
2019-03-29T05:16:24.785Z,36.59
2019-03-29T05:17:24.776Z,34.49
2019-03-29T05:18:24.763Z,35.27
2019-03-29T05:19:24.751Z,34.47
2019-03-29T05:20:24.794Z,35.26
2019-03-29T05:21:24.732Z,34.96
2019-03-29T05:22:24.725Z,35.14
2019-03-29T05:23:24.715Z,33.94
2019-03-29T05:24:24.702Z,34.13
2019-03-29T05:25:24.693Z,33.92
2019-03-29T05:26:25.627Z,34.33
2019-03-29T05:27:24.667Z,34.03
2019-03-29T05:28:24.660Z,34.33
2019-03-29T05:29:24.644Z,33.83
2019-03-29T05:30:24.637Z,34.03
2019-03-29T05:31:24.629Z,34.13
2019-03-29T05:32:24.764Z,34.42
2019-03-29T05:33:24.602Z,34.33
2019-03-29T05:34:24.602Z,34.92
2019-03-29T05:35:24.593Z,34.03
2019-03-29T05:36:24.577Z,34.01
2019-03-29T05:37:24.568Z,33.81
2019-03-29T05:38:24.604Z,34.21
2019-03-29T05:39:24.545Z,34.92
2019-03-29T05:40:34.819Z,34.13
2019-03-29T05:41:25.620Z,34.04
2019-03-29T05:42:24.511Z,35.44
2019-03-29T05:43:24.503Z,34.94
2019-03-29T05:44:24.545Z,35.14
2019-03-29T05:45:24.483Z,35.16
2019-03-29T05:46:24.472Z,34.36
2019-03-29T05:47:24.464Z,35.77
2019-03-29T05:48:24.448Z,34.39
2019-03-29T05:49:24.445Z,34.69
2019-03-29T05:50:24.631Z,36.09
2019-03-29T05:51:24.423Z,35.41
2019-03-29T05:52:24.456Z,36.40
2019-03-29T05:53:24.404Z,37.12
2019-03-29T05:54:24.390Z,37.93
2019-03-29T05:55:32.502Z,37.86
2019-03-29T05:56:49.286Z,38.55
2019-03-29T05:57:49.275Z,38.47
2019-03-29T05:58:49.266Z,38.49
2019-03-29T05:59:49.253Z,39.39
2019-03-29T06:00:49.246Z,38.81
2019-03-29T06:01:49.330Z,38.90
2019-03-29T06:02:49.226Z,39.63
2019-03-29T06:03:49.208Z,40.63
2019-03-29T06:04:49.197Z,40.25
2019-03-29T06:05:49.193Z,40.17
2019-03-29T06:06:49.177Z,40.86
2019-03-29T06:07:49.327Z,41.79
2019-03-29T06:08:49.159Z,42.39
2019-03-29T06:09:49.148Z,43.31
2019-03-29T06:10:49.793Z,44.01
2019-03-29T06:11:49.126Z,44.12
2019-03-29T06:12:49.121Z,44.94
2019-03-29T06:13:49.207Z,44.74
2019-03-29T06:14:49.095Z,46.86
2019-03-29T06:15:49.083Z,47.49
2019-03-29T06:16:49.068Z,49.53
2019-03-29T06:17:49.309Z,50.35
2019-03-29T06:18:49.045Z,51.68
2019-03-29T06:19:49.144Z,52.31
2019-03-29T06:20:49.030Z,52.81
2019-03-29T06:21:49.020Z,53.47
2019-03-29T06:22:49.007Z,55.01
2019-03-29T06:23:48.993Z,54.70
2019-03-29T06:24:48.980Z,55.63
2019-03-29T06:25:49.124Z,56.87
2019-03-29T06:26:48.958Z,58.39
2019-03-29T06:27:48.945Z,58.99
2019-03-29T06:28:48.938Z,59.65
2019-03-29T06:29:48.925Z,60.16
2019-03-29T06:30:48.914Z,60.49
2019-03-29T06:31:49.002Z,61.52
2019-03-29T06:32:48.897Z,61.46
2019-03-29T06:33:48.896Z,62.80
2019-03-29T06:34:52.927Z,63.31
2019-03-29T06:35:49.078Z,63.56
2019-03-29T06:36:51.506Z,63.36
2019-03-29T06:37:51.949Z,64.68
2019-03-29T06:38:48.836Z,65.42
2019-03-29T06:39:48.819Z,65.02
2019-03-29T06:41:01.808Z,65.93
2019-03-29T06:42:13.769Z,65.82
2019-03-29T06:43:13.609Z,66.74
2019-03-29T06:44:13.597Z,66.97
2019-03-29T06:45:13.588Z,67.68
2019-03-29T06:46:13.574Z,66.77
2019-03-29T06:47:13.563Z,66.87
2019-03-29T06:48:13.606Z,66.87
2019-03-29T06:49:13.547Z,67.07
2019-03-29T06:50:14.269Z,66.26
2019-03-29T06:51:13.526Z,66.77
2019-03-29T06:52:13.539Z,66.80
2019-03-29T06:53:13.503Z,66.60
2019-03-29T06:54:13.542Z,66.46
2019-03-29T06:55:13.482Z,66.97
2019-03-29T06:56:13.470Z,67.71
2019-03-29T06:57:13.458Z,67.81
2019-03-29T06:58:13.452Z,68.01
2019-03-29T06:59:13.437Z,68.76
2019-03-29T07:00:13.578Z,68.45
2019-03-29T07:01:13.418Z,68.96
2019-03-29T07:02:13.407Z,68.05
2019-03-29T07:03:13.392Z,67.24
2019-03-29T07:04:13.382Z,68.76
2019-03-29T07:05:13.398Z,68.86
2019-03-29T07:06:13.466Z,67.74
2019-03-29T07:07:13.354Z,69.09
2019-03-29T07:08:13.342Z,68.08
2019-03-29T07:09:13.332Z,68.69
2019-03-29T07:10:13.318Z,69.40
2019-03-29T07:11:17.618Z,69.40
2019-03-29T07:12:13.405Z,69.20
2019-03-29T07:13:13.293Z,69.70
2019-03-29T07:14:13.284Z,68.89
2019-03-29T07:15:13.271Z,68.18
2019-03-29T07:16:13.257Z,70.21
2019-03-29T07:17:13.244Z,70.92
2019-03-29T07:18:13.485Z,68.69
2019-03-29T07:19:38.049Z,69.26
2019-03-29T07:20:38.032Z,69.29
2019-03-29T07:21:38.018Z,69.06
2019-03-29T07:22:38.009Z,70.48
2019-03-29T07:23:38.048Z,69.06
2019-03-29T07:24:37.979Z,68.56
2019-03-29T07:25:37.977Z,67.95
2019-03-29T07:26:37.961Z,63.05
2019-03-29T07:27:44.716Z,60.43
2019-03-29T07:28:39.098Z,62.22
2019-03-29T07:29:37.946Z,57.81
2019-03-29T07:30:37.922Z,54.71
2019-03-29T07:31:37.908Z,55.16
2019-03-29T07:32:37.894Z,54.76
2019-03-29T07:33:37.888Z,53.82
2019-03-29T07:34:37.973Z,52.41
2019-03-29T07:35:37.862Z,52.66
2019-03-29T07:36:37.849Z,51.76
2019-03-29T07:37:37.846Z,51.53
2019-03-29T07:38:37.833Z,51.43
2019-03-29T07:39:37.828Z,51.73
2019-03-29T07:40:37.964Z,54.90
2019-03-29T07:41:37.814Z,57.00
2019-03-29T07:42:37.792Z,59.68
2019-03-29T07:43:37.777Z,60.54
2019-03-29T07:44:37.767Z,62.09
2019-03-29T07:45:37.754Z,62.45
2019-03-29T07:46:37.797Z,64.41
2019-03-29T07:47:37.735Z,65.11
2019-03-29T07:48:40.413Z,65.65
2019-03-29T07:49:37.709Z,64.97
2019-03-29T07:50:37.697Z,63.73
2019-03-29T07:51:37.686Z,64.84
2019-03-29T07:52:37.733Z,65.55
2019-03-29T07:53:37.671Z,65.75
2019-03-29T07:54:37.660Z,65.75
2019-03-29T07:55:37.734Z,65.86
2019-03-29T07:56:37.634Z,66.57
2019-03-29T07:57:37.630Z,67.27
2019-03-29T07:58:37.766Z,68.18
2019-03-29T07:59:37.605Z,68.09
2019-03-29T08:00:37.589Z,68.73
2019-03-29T08:01:37.598Z,68.73
2019-03-29T08:02:37.571Z,68.93
2019-03-29T08:03:37.563Z,69.13
2019-03-29T08:04:37.602Z,69.03
2019-03-29T08:05:37.535Z,69.13
2019-03-29T08:06:38.362Z,69.03
2019-03-29T08:07:37.523Z,69.54
2019-03-29T08:08:37.511Z,68.22
2019-03-29T08:10:37.533Z,65.55
2019-03-29T08:11:46.078Z,65.93
2019-03-29T08:13:02.279Z,65.82
2019-03-29T08:14:02.274Z,64.41
2019-03-29T08:15:02.255Z,67.44
2019-03-29T08:16:02.349Z,66.63
2019-03-29T08:17:02.234Z,67.85
2019-03-29T08:18:02.229Z,66.13
2019-03-29T08:19:02.235Z,68.15
2019-03-29T08:20:36.548Z,67.17
2019-03-29T08:21:03.345Z,67.44
2019-03-29T08:22:02.183Z,65.72
2019-03-29T08:23:02.181Z,66.13
2019-03-29T08:24:02.165Z,66.33
2019-03-29T08:25:02.154Z,66.13
2019-03-29T08:26:02.140Z,65.11
2019-03-29T08:27:02.232Z,65.72
2019-03-29T08:28:02.117Z,65.82
2019-03-29T08:29:02.107Z,65.72
2019-03-29T08:30:02.100Z,67.38
2019-03-29T08:31:02.086Z,67.98
2019-03-29T08:32:02.084Z,66.90
2019-03-29T08:33:02.118Z,67.38
2019-03-29T08:34:02.063Z,67.68
2019-03-29T08:35:02.045Z,67.78
2019-03-29T08:36:02.040Z,68.29
2019-03-29T08:37:02.021Z,68.01
2019-03-29T08:38:02.011Z,67.21
2019-03-29T08:39:02.048Z,68.01
2019-03-29T08:40:01.994Z,68.22
2019-03-29T08:41:01.979Z,68.22
2019-03-29T08:42:01.968Z,68.56
2019-03-29T08:43:01.959Z,69.16
2019-03-29T08:44:01.974Z,69.16
2019-03-29T08:45:01.991Z,68.56
2019-03-29T08:46:01.932Z,69.16
2019-03-29T08:47:01.921Z,69.47
2019-03-29T08:48:02.381Z,69.09
2019-03-29T08:49:01.898Z,69.37
2019-03-29T08:50:01.889Z,69.00
2019-03-29T08:51:01.925Z,70.11
2019-03-29T08:52:01.864Z,69.90
2019-03-29T08:53:01.850Z,70.52
2019-03-29T08:54:01.849Z,70.55
2019-03-29T08:55:01.837Z,70.52
2019-03-29T08:56:01.821Z,70.34
2019-03-29T08:57:01.912Z,70.52
2019-03-29T08:58:01.801Z,70.11
2019-03-29T08:59:01.787Z,70.34
2019-03-29T09:00:01.776Z,70.45
2019-03-29T09:01:01.767Z,71.05
2019-03-29T09:02:01.760Z,71.05
2019-03-29T09:03:01.795Z,71.46
2019-03-29T09:04:05.634Z,70.95
2019-03-29T09:05:01.722Z,71.46
2019-03-29T09:06:01.713Z,71.16
2019-03-29T09:07:01.702Z,70.85
2019-03-29T09:08:01.693Z,71.05
2019-03-29T09:09:01.730Z,70.65
2019-03-29T09:10:01.674Z,70.85
2019-03-29T09:11:01.664Z,70.65
2019-03-29T09:12:13.714Z,69.29
2019-03-29T09:13:26.454Z,69.29
2019-03-29T09:14:26.493Z,69.09
2019-03-29T09:15:26.438Z,70.11
2019-03-29T09:16:26.423Z,69.09
2019-03-29T09:17:26.410Z,70.01
2019-03-29T09:18:26.452Z,70.21
2019-03-29T09:19:26.389Z,70.04
2019-03-29T09:20:26.427Z,70.14
2019-03-29T09:21:26.368Z,70.11
2019-03-29T09:22:26.353Z,69.33
2019-03-29T09:23:29.817Z,69.53
2019-03-29T09:24:26.375Z,69.23
2019-03-29T09:25:26.328Z,67.77
2019-03-29T09:26:26.417Z,69.20
2019-03-29T09:27:26.303Z,68.05
2019-03-29T09:28:26.293Z,68.25
2019-03-29T09:29:26.285Z,68.86
2019-03-29T09:30:26.268Z,68.15
2019-03-29T09:31:26.257Z,68.35
2019-03-29T09:32:26.298Z,68.76
2019-03-29T09:33:26.248Z,69.26
2019-03-29T09:34:28.868Z,69.09
2019-03-29T09:35:26.218Z,69.09
2019-03-29T09:36:26.204Z,69.40
2019-03-29T09:37:26.189Z,69.09
2019-03-29T09:38:26.230Z,69.40
2019-03-29T09:39:26.170Z,70.21
2019-03-29T09:40:26.164Z,70.18
2019-03-29T09:41:26.150Z,69.67
2019-03-29T09:42:29.652Z,70.48
2019-03-29T09:43:26.732Z,70.99
2019-03-29T09:44:26.165Z,70.38
2019-03-29T09:45:26.110Z,70.58
2019-03-29T09:46:26.093Z,70.48
2019-03-29T09:47:26.089Z,70.99
2019-03-29T09:48:26.070Z,70.38
2019-03-29T09:49:26.060Z,69.97
2019-03-29T09:50:26.149Z,70.18
2019-03-29T09:51:26.081Z,70.48
2019-03-29T09:52:26.031Z,70.78
2019-03-29T09:53:26.019Z,70.45
2019-03-29T09:54:26.006Z,70.08
2019-03-29T09:55:25.995Z,70.69
2019-03-29T09:56:38.067Z,69.16
2019-03-29T09:57:50.789Z,70.34
2019-03-29T09:58:50.775Z,70.99
2019-03-29T09:59:50.848Z,70.95
2019-03-29T10:00:50.758Z,70.95
2019-03-29T10:01:53.868Z,70.78
2019-03-29T10:02:50.762Z,71.09
2019-03-29T10:03:50.727Z,71.70
2019-03-29T10:04:50.713Z,72.41
2019-03-29T10:05:50.707Z,71.39
2019-03-29T10:06:50.694Z,71.29
2019-03-29T10:07:50.781Z,71.87
2019-03-29T10:08:53.274Z,71.19
2019-03-29T10:09:50.670Z,72.17
2019-03-29T10:10:50.649Z,71.06
2019-03-29T10:11:50.641Z,71.36
2019-03-29T10:12:50.647Z,68.73
2019-03-29T10:13:50.671Z,70.85
2019-03-29T10:14:50.611Z,70.85
2019-03-29T10:15:51.476Z,70.75
2019-03-29T10:16:50.589Z,71.66
2019-03-29T10:17:50.580Z,71.39
2019-03-29T10:18:50.569Z,72.21
2019-03-29T10:19:50.667Z,72.41
2019-03-29T10:20:50.546Z,72.41
2019-03-29T10:21:50.537Z,71.60
2019-03-29T10:22:50.536Z,71.90
2019-03-29T10:23:50.520Z,71.43
2019-03-29T10:24:50.510Z,72.85
2019-03-29T10:25:50.597Z,73.05
2019-03-29T10:26:50.484Z,73.87
2019-03-29T10:27:50.474Z,73.87
2019-03-29T10:28:50.463Z,74.07
2019-03-29T10:29:50.453Z,74.07
2019-03-29T10:30:50.446Z,73.87
2019-03-29T10:31:50.545Z,73.87
2019-03-29T10:32:50.417Z,72.85
2019-03-29T10:33:50.412Z,72.68
2019-03-29T10:34:50.402Z,73.05
2019-03-29T10:35:52.514Z,73.35
2019-03-29T10:36:50.378Z,73.15
2019-03-29T10:37:50.419Z,73.49
2019-03-29T10:38:50.363Z,73.19
2019-03-29T10:39:50.346Z,73.46
2019-03-29T10:40:50.333Z,73.19
2019-03-29T10:41:50.325Z,73.35
2019-03-29T10:42:57.564Z,73.05
2019-03-29T10:51:50.216Z,73.56
2019-03-29T10:52:50.379Z,71.33
2019-03-29T10:53:50.199Z,73.26
2019-03-29T10:54:50.233Z,73.05
2019-03-29T10:55:50.229Z,69.16
2019-03-29T10:56:50.167Z,69.03
2019-03-29T10:57:50.156Z,68.01
2019-03-29T10:58:50.145Z,67.98
2019-03-29T10:59:50.139Z,67.78
2019-03-29T11:00:50.126Z,66.66
2019-03-29T11:01:50.212Z,67.88
2019-03-29T11:02:50.102Z,67.41
2019-03-29T11:03:50.099Z,69.26
2019-03-29T11:04:50.081Z,69.97
2019-03-29T11:05:50.074Z,70.21
2019-03-29T11:06:50.061Z,70.41
2019-03-29T11:07:50.106Z,71.56
2019-03-29T11:08:50.035Z,72.47
2019-03-29T11:09:50.027Z,73.02
2019-03-29T11:10:50.015Z,73.12
2019-03-29T11:11:50.001Z,73.93
2019-03-29T11:12:49.997Z,74.07
2019-03-29T11:13:50.087Z,74.37
2019-03-29T11:14:49.982Z,74.68
2019-03-29T11:15:49.963Z,75.02
2019-03-29T11:16:49.957Z,74.98
2019-03-29T11:17:49.944Z,75.29
2019-03-29T11:18:49.932Z,75.63
2019-03-29T11:19:49.971Z,75.59
2019-03-29T11:20:49.913Z,75.63
2019-03-29T11:21:49.899Z,75.02
2019-03-29T11:22:49.895Z,75.12
2019-03-29T11:23:49.881Z,75.18
2019-03-29T11:24:49.865Z,75.02
2019-03-29T11:25:49.907Z,75.32
2019-03-29T11:26:49.847Z,75.53
2019-03-29T11:27:49.836Z,75.93
2019-03-29T11:28:49.822Z,75.63
2019-03-29T11:29:49.818Z,75.53
2019-03-29T11:30:49.801Z,75.42
2019-03-29T11:31:49.839Z,76.07
2019-03-29T11:32:49.781Z,76.24
2019-03-29T11:33:49.771Z,76.17
2019-03-29T11:34:49.756Z,76.17
2019-03-29T11:35:49.749Z,76.37
2019-03-29T11:36:52.425Z,76.17
2019-03-29T11:37:49.828Z,75.73
2019-03-29T11:38:49.720Z,76.14
2019-03-29T11:39:49.709Z,76.34
2019-03-29T11:40:49.694Z,76.55
2019-03-29T11:41:49.685Z,76.48
2019-03-29T11:42:49.673Z,76.28
2019-03-29T11:43:49.709Z,75.97
2019-03-29T11:44:49.655Z,76.24
2019-03-29T11:45:49.645Z,75.83
2019-03-29T11:46:49.634Z,75.83
2019-03-29T11:47:49.622Z,76.85
2019-03-29T11:48:49.610Z,76.75
2019-03-29T11:49:52.805Z,76.75
2019-03-29T11:50:49.589Z,77.09
2019-03-29T11:51:49.576Z,77.16
2019-03-29T11:52:49.568Z,77.70
2019-03-29T11:53:51.089Z,77.80
2019-03-29T11:54:49.549Z,78.00
2019-03-29T11:55:49.641Z,78.00
2019-03-29T11:56:49.529Z,77.70
2019-03-29T11:57:49.516Z,77.70
2019-03-29T11:58:49.502Z,77.39
2019-03-29T11:59:49.498Z,78.21
2019-03-29T12:00:49.485Z,77.70
2019-03-29T12:01:49.523Z,78.00
2019-03-29T12:02:49.467Z,78.00
2019-03-29T12:03:49.454Z,77.09
2019-03-29T12:04:49.441Z,76.78
2019-03-29T12:05:49.432Z,75.26
2019-03-29T12:06:49.425Z,74.71
2019-03-29T12:07:49.518Z,73.84
2019-03-29T12:08:49.403Z,74.31
2019-03-29T12:09:49.393Z,74.92
2019-03-29T12:10:49.381Z,74.82
2019-03-29T12:11:49.441Z,74.61
2019-03-29T12:12:49.362Z,73.46
2019-03-29T12:13:49.400Z,72.95
2019-03-29T12:14:49.336Z,72.03
2019-03-29T12:15:49.331Z,72.95
2019-03-29T12:16:49.318Z,74.07
2019-03-29T12:17:49.307Z,74.41
2019-03-29T12:18:49.293Z,74.37
2019-03-29T12:19:49.337Z,74.00
2019-03-29T12:20:49.272Z,74.71
2019-03-29T12:21:49.262Z,76.48
2019-03-29T12:22:49.256Z,76.98
2019-03-29T12:23:49.236Z,77.83
2019-03-29T12:24:49.234Z,77.47
2019-03-29T12:25:49.275Z,77.56
2019-03-29T12:26:49.210Z,77.97
2019-03-29T12:27:49.201Z,77.13
2019-03-29T12:28:49.190Z,77.33
2019-03-29T12:29:49.181Z,76.72
2019-03-29T12:30:49.165Z,77.36
2019-03-29T12:31:49.204Z,77.67
2019-03-29T12:32:49.149Z,77.13
2019-03-29T12:33:49.131Z,77.53
2019-03-29T12:34:49.120Z,77.13
2019-03-29T12:35:49.116Z,77.83
2019-03-29T12:36:49.110Z,77.13
2019-03-29T12:37:49.148Z,77.26
2019-03-29T12:38:49.091Z,77.87
2019-03-29T12:39:49.072Z,77.06
2019-03-29T12:40:49.057Z,75.36
2019-03-29T12:41:49.047Z,73.05
2019-03-29T12:42:49.041Z,70.75
2019-03-29T12:43:55.315Z,68.05
2019-03-29T12:45:13.830Z,67.98
2019-03-29T12:46:13.824Z,70.45
2019-03-29T12:47:13.819Z,70.85
2019-03-29T12:48:13.800Z,70.58
2019-03-29T12:49:13.837Z,72.14
2019-03-29T12:50:13.776Z,72.03
2019-03-29T12:51:13.768Z,72.78
2019-03-29T12:52:13.753Z,73.39
2019-03-29T12:53:13.749Z,72.51
2019-03-29T12:54:13.736Z,73.02
2019-03-29T12:55:13.776Z,72.61
2019-03-29T12:56:13.714Z,72.88
2019-03-29T12:57:13.706Z,70.95
2019-03-29T12:58:13.698Z,70.85
2019-03-29T12:59:13.689Z,70.75
2019-03-29T13:00:13.674Z,71.63
2019-03-29T13:01:13.915Z,70.01
2019-03-29T13:02:13.651Z,70.65
2019-03-29T13:03:13.636Z,66.77
2019-03-29T13:04:13.629Z,67.68
2019-03-29T13:05:13.721Z,68.59
2019-03-29T13:06:13.609Z,70.75
2019-03-29T13:07:13.596Z,70.48
2019-03-29T13:08:13.624Z,69.16
2019-03-29T13:09:13.573Z,71.60
2019-03-29T13:10:13.662Z,72.54
2019-03-29T13:11:13.555Z,70.78
2019-03-29T13:12:13.541Z,70.69
2019-03-29T13:13:13.536Z,72.31
2019-03-29T13:14:13.521Z,70.99
2019-03-29T13:15:13.509Z,72.44
2019-03-29T13:16:13.597Z,72.65
2019-03-29T13:17:13.490Z,73.35
2019-03-29T13:18:13.481Z,73.69
2019-03-29T13:19:13.462Z,72.27
2019-03-29T13:20:13.458Z,72.47
2019-03-29T13:21:13.492Z,70.11
2019-03-29T13:22:13.436Z,69.16
2019-03-29T13:23:13.425Z,67.27
2019-03-29T13:24:15.941Z,68.79
2019-03-29T13:25:13.402Z,65.08